createdAt,value
2022-08-07T00:01:43.089Z,102728.66
2022-08-07T00:03:49.413Z,102728.19
2022-08-07T00:06:15.897Z,102723.81
2022-08-07T00:08:44.579Z,102716.00
2022-08-07T00:11:11.088Z,102715.53
2022-08-07T00:13:44.751Z,102715.28
2022-08-07T00:16:17.402Z,102722.78
2022-08-07T00:18:48.296Z,102721.25
2022-08-07T00:21:55.359Z,102712.63
2022-08-07T00:24:01.213Z,102712.84
2022-08-07T00:26:48.710Z,102708.81
2022-08-07T00:29:15.197Z,102710.84
2022-08-07T00:31:42.612Z,102713.56
2022-08-07T00:34:09.931Z,102718.53
2022-08-07T00:36:42.605Z,102716.03
2022-08-07T00:39:12.822Z,102709.91
2022-08-07T00:41:53.501Z,102713.03
2022-08-07T00:44:28.118Z,102713.41
2022-08-07T00:46:55.342Z,102718.00
2022-08-07T00:49:24.794Z,102712.56
2022-08-07T00:52:09.901Z,102711.03
2022-08-07T00:54:36.430Z,102700.38
2022-08-07T00:57:07.300Z,102710.56
2022-08-07T00:59:37.514Z,102706.38
2022-08-07T01:02:14.032Z,102699.44
2022-08-07T01:04:53.744Z,102703.34
2022-08-07T01:07:25.117Z,102692.69
2022-08-07T01:10:05.692Z,102704.94
2022-08-07T01:12:34.256Z,102694.25
2022-08-07T01:15:03.761Z,102697.16
2022-08-07T01:17:31.568Z,102693.81
2022-08-07T01:20:06.609Z,102701.28
2022-08-07T01:22:36.305Z,102691.63
2022-08-07T01:25:07.518Z,102688.47
2022-08-07T01:27:51.333Z,102688.63
2022-08-07T01:30:18.976Z,102694.25
2022-08-07T01:32:47.075Z,102694.41
2022-08-07T01:35:14.810Z,102693.59
2022-08-07T01:37:45.662Z,102694.63
2022-08-07T01:40:14.831Z,102691.91
2022-08-07T01:42:58.713Z,102687.66
2022-08-07T01:45:36.179Z,102682.81
2022-08-07T01:48:19.277Z,102678.41
2022-08-07T01:51:24.436Z,102690.31
2022-08-07T01:54:09.206Z,102677.94
2022-08-07T01:56:53.040Z,102679.81
2022-08-07T01:59:31.143Z,102680.84
2022-08-07T02:02:07.130Z,102684.75
2022-08-07T02:05:06.799Z,102675.78
2022-08-07T02:07:50.253Z,102678.69
2022-08-07T02:10:25.139Z,102677.38
2022-08-07T02:12:55.639Z,102676.88
2022-08-07T02:15:31.929Z,102673.31
2022-08-07T02:18:02.750Z,102672.50
2022-08-07T02:20:33.091Z,102674.34
2022-08-07T02:23:03.110Z,102668.91
2022-08-07T02:26:26.550Z,102672.84
2022-08-07T02:28:24.785Z,102668.63
2022-08-07T02:30:56.303Z,102668.81
2022-08-07T02:33:42.110Z,102669.66
2022-08-07T02:36:29.163Z,102669.66
2022-08-07T02:39:16.684Z,102671.53
2022-08-07T02:41:54.839Z,102660.84
2022-08-07T02:44:26.820Z,102669.19
2022-08-07T02:46:56.992Z,102669.53
2022-08-07T02:49:28.597Z,102668.88
2022-08-07T02:52:17.368Z,102660.88
2022-08-07T02:54:50.443Z,102659.88
2022-08-07T02:57:23.814Z,102656.47
2022-08-07T03:00:01.329Z,102661.91
2022-08-07T03:02:35.525Z,102671.09
2022-08-07T03:05:04.070Z,102656.84
2022-08-07T03:07:58.920Z,102650.94
2022-08-07T03:10:23.470Z,102658.44
2022-08-07T03:12:58.383Z,102663.00
2022-08-07T03:15:30.361Z,102660.47
2022-08-07T03:18:17.478Z,102651.88
2022-08-07T03:20:47.484Z,102653.72
2022-08-07T03:23:19.348Z,102658.50
2022-08-07T03:25:46.907Z,102655.78
2022-08-07T03:28:37.411Z,102654.94
2022-08-07T03:31:19.213Z,102652.59
2022-08-07T03:34:02.314Z,102650.06
2022-08-07T03:36:34.162Z,102655.50
2022-08-07T03:39:07.362Z,102654.66
2022-08-07T03:41:42.459Z,102647.50
2022-08-07T03:44:15.342Z,102645.63
2022-08-07T03:47:11.031Z,102648.53
2022-08-07T03:49:30.381Z,102646.03
2022-08-07T03:52:01.250Z,102643.47
2022-08-07T03:54:36.508Z,102642.00
2022-08-07T03:59:04.904Z,102644.88
2022-08-07T04:00:04.373Z,102637.13
2022-08-07T04:02:47.291Z,102638.31
2022-08-07T04:05:39.663Z,102637.94
2022-08-07T04:08:18.272Z,102640.81
2022-08-07T04:10:54.276Z,102639.16
2022-08-07T04:14:09.175Z,102642.06
2022-08-07T04:16:31.282Z,102639.50
2022-08-07T04:19:01.785Z,102642.22
2022-08-07T04:21:33.483Z,102637.81
2022-08-07T04:24:03.928Z,102643.44
2022-08-07T04:26:34.150Z,102631.91
2022-08-07T04:29:00.675Z,102636.69
2022-08-07T04:31:39.071Z,102639.41
2022-08-07T04:34:24.162Z,102637.53
2022-08-07T04:36:55.044Z,102638.56
2022-08-07T04:39:25.975Z,102647.69
2022-08-07T04:41:53.728Z,102646.84
2022-08-07T04:44:20.706Z,102661.09
2022-08-07T04:47:08.668Z,102650.91
2022-08-07T04:49:57.931Z,102658.69
2022-08-07T04:52:50.868Z,102664.94
2022-08-07T04:58:10.443Z,102672.72
2022-08-07T04:59:15.833Z,102658.81
2022-08-07T05:01:46.969Z,102661.97
2022-08-07T05:04:26.385Z,102666.22
2022-08-07T05:07:09.645Z,102667.72
2022-08-07T05:10:00.915Z,102662.88
2022-08-07T05:12:46.159Z,102666.09
2022-08-07T05:15:26.531Z,102664.88
2022-08-07T05:18:08.834Z,102667.22
2022-08-07T05:20:48.052Z,102676.03
2022-08-07T05:23:29.111Z,102678.41
2022-08-07T05:26:13.221Z,102678.88
2022-08-07T05:28:50.970Z,102674.78
2022-08-07T05:31:34.694Z,102674.25
2022-08-07T05:34:05.645Z,102667.59
2022-08-07T05:36:42.014Z,102657.41
2022-08-07T05:40:06.821Z,102662.47
2022-08-07T05:42:12.375Z,102661.06
2022-08-07T05:44:46.459Z,102674.94
2022-08-07T05:47:20.909Z,102669.78
2022-08-07T05:50:06.383Z,102677.19
2022-08-07T05:52:33.194Z,102672.88
2022-08-07T05:55:10.210Z,102674.00
2022-08-07T05:57:42.303Z,102670.75
2022-08-07T06:00:16.301Z,102674.59
2022-08-07T06:02:51.621Z,102668.59
2022-08-07T06:05:20.319Z,102669.69
2022-08-07T06:08:13.109Z,102668.31
2022-08-07T06:10:41.228Z,102675.50
2022-08-07T06:13:13.554Z,102675.88
2022-08-07T06:15:43.083Z,102678.13
2022-08-07T06:18:17.158Z,102690.22
2022-08-07T06:20:49.757Z,102693.50
2022-08-07T06:24:37.791Z,102682.50
2022-08-07T06:26:21.634Z,102677.59
2022-08-07T06:28:57.048Z,102687.03
2022-08-07T06:31:38.547Z,102682.06
2022-08-07T06:34:13.819Z,102681.31
2022-08-07T06:36:41.869Z,102683.44
2022-08-07T06:40:13.219Z,102688.47
2022-08-07T06:42:05.212Z,102689.13
2022-08-07T06:44:54.622Z,102691.41
2022-08-07T06:47:23.630Z,102694.34
2022-08-07T06:49:58.757Z,102702.28
2022-08-07T06:52:36.102Z,102704.38
2022-08-07T06:55:33.209Z,102710.47
2022-08-07T06:58:13.429Z,102699.38
2022-08-07T07:00:53.213Z,102694.59
2022-08-07T07:03:47.564Z,102690.81
2022-08-07T07:06:13.321Z,102688.75
2022-08-07T07:08:46.738Z,102691.06
2022-08-07T07:12:08.580Z,102686.88
2022-08-07T07:14:03.211Z,102685.19
2022-08-07T07:16:45.247Z,102689.41
2022-08-07T07:19:55.852Z,102690.91
2022-08-07T07:22:35.930Z,102678.13
2022-08-07T07:26:31.358Z,102686.09
2022-08-07T07:28:03.177Z,102692.00
2022-08-07T07:30:38.266Z,102693.94
2022-08-07T07:33:07.959Z,102689.97
2022-08-07T07:35:54.176Z,102687.31
2022-08-07T07:38:27.353Z,102683.81
2022-08-07T07:41:01.900Z,102692.25
2022-08-07T07:44:14.365Z,102681.41
2022-08-07T07:46:37.883Z,102687.31
2022-08-07T07:49:09.341Z,102672.25
2022-08-07T07:51:58.304Z,102677.97
2022-08-07T07:54:26.592Z,102674.44
2022-08-07T07:56:55.096Z,102676.38
2022-08-07T07:59:52.293Z,102675.13
2022-08-07T08:02:22.465Z,102668.63
2022-08-07T08:05:02.714Z,102672.47
2022-08-07T08:07:35.641Z,102664.47
2022-08-07T08:10:10.816Z,102667.19
2022-08-07T08:12:59.009Z,102673.28
2022-08-07T08:15:29.562Z,102672.25
2022-08-07T08:18:17.990Z,102666.78
2022-08-07T08:20:48.090Z,102654.00
2022-08-07T08:23:37.734Z,102662.44
2022-08-07T08:26:25.224Z,102665.19
2022-08-07T08:28:55.786Z,102659.72
2022-08-07T08:31:58.969Z,102662.06
2022-08-07T08:34:31.606Z,102661.28
2022-08-07T08:37:00.232Z,102668.41
2022-08-07T08:39:39.060Z,102663.00
2022-08-07T08:42:25.997Z,102658.84
2022-08-07T08:45:13.230Z,102665.34
2022-08-07T08:48:04.545Z,102656.31
2022-08-07T08:50:40.035Z,102662.00
2022-08-07T08:53:22.430Z,102650.03
2022-08-07T08:55:58.854Z,102652.16
2022-08-07T08:58:47.681Z,102661.03
2022-08-07T09:01:40.070Z,102658.75
2022-08-07T09:04:47.480Z,102657.72
2022-08-07T09:07:25.166Z,102665.50
2022-08-07T09:10:11.480Z,102662.41
2022-08-07T09:12:53.178Z,102657.81
2022-08-07T09:16:22.882Z,102658.84
2022-08-07T09:18:53.120Z,102664.94
2022-08-07T09:22:09.605Z,102656.13
2022-08-07T09:24:59.654Z,102650.84
2022-08-07T09:29:24.366Z,102655.28
2022-08-07T09:31:54.850Z,102653.22
2022-08-07T09:34:28.204Z,102644.78
2022-08-07T09:37:04.684Z,102650.44
2022-08-07T09:39:57.744Z,102652.97
2022-08-07T09:42:37.768Z,102647.72
2022-08-07T09:47:51.359Z,102648.59
2022-08-07T09:50:01.739Z,102644.38
2022-08-07T09:52:33.477Z,102633.44
2022-08-07T09:55:17.122Z,102629.91
2022-08-07T09:58:08.201Z,102629.47
2022-08-07T10:00:53.410Z,102624.88
2022-08-07T10:04:14.143Z,102619.22
2022-08-07T10:07:24.433Z,102623.81
2022-08-07T10:10:06.925Z,102618.78
2022-08-07T10:12:53.936Z,102607.00
2022-08-07T10:15:37.902Z,102602.34
2022-08-07T10:18:26.339Z,102608.66
2022-08-07T10:21:19.965Z,102606.75
2022-08-07T10:24:40.041Z,102604.84
2022-08-07T10:27:46.168Z,102605.28
2022-08-07T10:30:17.817Z,102589.94
2022-08-07T10:33:20.344Z,102600.81
2022-08-07T10:36:45.580Z,102594.91
2022-08-07T10:39:41.183Z,102583.75
2022-08-07T10:42:37.075Z,102590.91
2022-08-07T10:45:45.154Z,102579.75
2022-08-07T10:48:51.125Z,102573.44
2022-08-07T10:52:01.672Z,102576.53
2022-08-07T10:54:41.188Z,102571.03
2022-08-07T10:57:34.518Z,102571.84
2022-08-07T11:00:09.827Z,102569.13
2022-08-07T11:03:10.896Z,102568.50
2022-08-07T11:05:52.758Z,102556.50
2022-08-07T11:08:54.538Z,102563.22
2022-08-07T11:11:36.020Z,102551.59
2022-08-07T11:14:43.693Z,102552.63
2022-08-07T11:17:43.637Z,102552.75
2022-08-07T11:20:24.506Z,102558.59
2022-08-07T11:23:26.366Z,102546.56
2022-08-07T11:26:38.471Z,102541.50
2022-08-07T11:29:43.116Z,102553.84
2022-08-07T11:32:31.853Z,102547.53
2022-08-07T11:35:06.664Z,102550.22
2022-08-07T11:38:12.659Z,102555.03
2022-08-07T11:41:09.313Z,102544.94
2022-08-07T11:44:12.415Z,102546.06
2022-08-07T11:46:57.959Z,102543.16
2022-08-07T11:50:25.760Z,102537.28
2022-08-07T11:52:42.229Z,102535.38
2022-08-07T11:56:13.954Z,102526.53
2022-08-07T12:00:08.305Z,102528.59
2022-08-07T12:02:33.457Z,102527.38
2022-08-07T12:05:28.456Z,102528.75
2022-08-07T12:08:34.911Z,102525.09
2022-08-07T12:11:21.767Z,102527.66
2022-08-07T12:13:56.931Z,102524.91
2022-08-07T12:16:35.192Z,102517.28
2022-08-07T12:19:24.850Z,102517.41
2022-08-07T12:22:38.690Z,102527.09
2022-08-07T12:26:03.309Z,102511.50
2022-08-07T12:28:57.934Z,102516.97
2022-08-07T12:31:53.248Z,102514.41
2022-08-07T12:34:25.882Z,102511.91
2022-08-07T12:36:56.275Z,102510.59
2022-08-07T12:39:44.074Z,102512.38
2022-08-07T12:42:15.511Z,102516.88
2022-08-07T12:44:46.294Z,102512.16
2022-08-07T12:47:37.439Z,102519.47
2022-08-07T12:50:39.191Z,102516.47
2022-08-07T12:54:03.370Z,102512.69
2022-08-07T12:56:37.937Z,102505.31
2022-08-07T12:59:08.315Z,102497.69
2022-08-07T13:01:57.993Z,102495.94
2022-08-07T13:04:49.364Z,102499.34
2022-08-07T13:08:14.647Z,102502.84
2022-08-07T13:10:55.913Z,102504.97
2022-08-07T13:13:46.645Z,102500.94
2022-08-07T13:16:25.107Z,102495.03
2022-08-07T13:19:05.084Z,102491.72
2022-08-07T13:22:19.306Z,102497.13
2022-08-07T13:25:00.230Z,102492.94
2022-08-07T13:28:11.433Z,102491.41
2022-08-07T13:30:40.255Z,102478.44
2022-08-07T13:34:32.661Z,102488.69
2022-08-07T13:36:25.858Z,102484.78
2022-08-07T13:39:05.031Z,102483.25
2022-08-07T13:41:47.612Z,102485.38
2022-08-07T13:44:26.197Z,102475.38
2022-08-07T13:46:59.357Z,102487.81
2022-08-07T13:50:35.134Z,102474.25
2022-08-07T13:52:30.626Z,102484.25
2022-08-07T13:55:10.999Z,102475.31
2022-08-07T13:57:58.990Z,102490.84
2022-08-07T14:00:50.340Z,102484.59
2022-08-07T14:04:05.377Z,102480.66
2022-08-07T14:06:17.573Z,102477.66
2022-08-07T14:08:48.620Z,102473.94
2022-08-07T14:11:22.687Z,102480.59
2022-08-07T14:13:55.664Z,102482.50
2022-08-07T14:16:31.572Z,102485.88
2022-08-07T14:19:01.487Z,102486.09
2022-08-07T14:22:01.456Z,102484.31
2022-08-07T14:24:41.521Z,102483.75
2022-08-07T14:27:16.220Z,102489.84
2022-08-07T14:30:11.335Z,102488.75
2022-08-07T14:32:47.978Z,102486.81
2022-08-07T14:35:43.028Z,102483.16
2022-08-07T14:38:26.741Z,102491.50
2022-08-07T14:41:02.162Z,102474.06
2022-08-07T14:43:59.028Z,102473.09
2022-08-07T14:46:31.253Z,102485.28
2022-08-07T14:49:56.836Z,102476.09
2022-08-07T14:52:10.211Z,102481.44
2022-08-07T14:54:42.054Z,102477.47
2022-08-07T14:57:14.872Z,102474.16
2022-08-07T15:00:03.474Z,102478.56
2022-08-07T15:02:34.675Z,102470.19
2022-08-07T15:05:03.367Z,102461.84
2022-08-07T15:07:47.359Z,102461.47
2022-08-07T15:10:26.068Z,102468.25
2022-08-07T15:12:59.555Z,102471.94
2022-08-07T15:18:35.613Z,102467.03
2022-08-07T15:25:16.103Z,102464.16
2022-08-07T15:26:57.197Z,102472.38
2022-08-07T15:30:06.524Z,102461.78
2022-08-07T15:32:39.712Z,102458.59
2022-08-07T15:38:18.337Z,102462.38
2022-08-07T15:43:56.333Z,102462.50
2022-08-07T15:46:32.274Z,102467.66
2022-08-07T15:49:13.181Z,102467.72
2022-08-07T15:54:34.568Z,102452.66
2022-08-07T15:57:27.873Z,102450.75
2022-08-07T15:59:59.223Z,102443.09
2022-08-07T16:02:30.006Z,102439.31
2022-08-07T16:05:15.367Z,102448.59
2022-08-07T16:08:32.379Z,102442.25
2022-08-07T16:10:38.120Z,102446.88
2022-08-07T16:13:59.128Z,102452.22
2022-08-07T16:16:47.682Z,102444.91
2022-08-07T16:19:41.908Z,102444.44
2022-08-07T16:22:55.593Z,102445.06
2022-08-07T16:25:54.283Z,102446.81
2022-08-07T16:30:05.548Z,102445.50
2022-08-07T16:31:57.960Z,102445.13
2022-08-07T16:34:58.430Z,102444.69
2022-08-07T16:38:09.273Z,102436.13
2022-08-07T16:41:02.747Z,102441.50
2022-08-07T16:44:04.056Z,102446.59
2022-08-07T16:47:08.835Z,102443.47
2022-08-07T16:50:37.153Z,102439.78
2022-08-07T16:54:01.174Z,102434.94
2022-08-07T16:56:40.043Z,102450.16
2022-08-07T16:59:18.214Z,102445.59
2022-08-07T17:02:03.592Z,102444.84
2022-08-07T17:04:58.640Z,102439.69
2022-08-07T17:07:55.099Z,102444.78
2022-08-07T17:10:32.672Z,102435.50
2022-08-07T17:13:41.813Z,102437.31
2022-08-07T17:16:30.480Z,102441.94
2022-08-07T17:18:57.801Z,102442.19
2022-08-07T17:24:29.811Z,102430.00
2022-08-07T17:27:06.319Z,102423.91
2022-08-07T17:30:15.686Z,102426.66
2022-08-07T17:32:55.845Z,102425.53
2022-08-07T17:35:55.215Z,102435.28
2022-08-07T17:38:34.102Z,102432.75
2022-08-07T17:42:01.595Z,102425.16
2022-08-07T17:44:41.443Z,102419.88
2022-08-07T17:47:17.048Z,102419.28
2022-08-07T17:50:14.368Z,102421.63
2022-08-07T17:52:52.309Z,102420.81
2022-08-07T17:56:00.617Z,102422.72
2022-08-07T17:58:49.521Z,102426.03
2022-08-07T18:01:27.728Z,102429.41
2022-08-07T18:04:21.991Z,102427.88
2022-08-07T18:07:21.080Z,102435.66
2022-08-07T18:10:32.839Z,102419.28
2022-08-07T18:12:59.548Z,102424.84
2022-08-07T18:15:32.648Z,102426.72
2022-08-07T18:18:47.449Z,102431.38
2022-08-07T18:21:42.130Z,102426.59
2022-08-07T18:24:33.571Z,102434.38
2022-08-07T18:27:24.572Z,102436.53
2022-08-07T18:30:06.991Z,102443.69
2022-08-07T18:33:36.410Z,102431.56
2022-08-07T18:36:33.021Z,102430.28
2022-08-07T18:40:08.710Z,102432.38
2022-08-07T18:42:27.873Z,102439.31
2022-08-07T18:45:43.689Z,102431.56
2022-08-07T18:48:02.803Z,102442.13
2022-08-07T18:50:47.512Z,102442.59
2022-08-07T18:53:14.598Z,102441.59
2022-08-07T18:56:01.735Z,102449.88
2022-08-07T18:58:54.780Z,102442.94
2022-08-07T19:01:37.234Z,102449.47
2022-08-07T19:04:56.274Z,102455.41
2022-08-07T19:07:51.952Z,102451.59
2022-08-07T19:10:31.803Z,102453.53
2022-08-07T19:13:50.901Z,102453.38
2022-08-07T19:16:43.215Z,102451.31
2022-08-07T19:19:47.261Z,102458.91
2022-08-07T19:22:31.227Z,102460.19
2022-08-07T19:25:05.706Z,102465.88
2022-08-07T19:28:57.179Z,102471.16
2022-08-07T19:31:00.842Z,102476.81
2022-08-07T19:33:18.546Z,102476.00
2022-08-07T19:35:53.767Z,102481.47
2022-08-07T19:38:22.603Z,102480.47
2022-08-07T19:40:51.851Z,102486.38
2022-08-07T19:43:48.680Z,102487.28
2022-08-07T19:46:11.136Z,102491.91
2022-08-07T19:48:44.207Z,102490.03
2022-08-07T19:51:19.192Z,102495.13
2022-08-07T19:54:33.608Z,102497.66
2022-08-07T19:58:00.227Z,102505.91
2022-08-07T19:59:39.875Z,102504.69
2022-08-07T20:02:18.937Z,102504.69
2022-08-07T20:04:49.746Z,102508.25
2022-08-07T20:07:23.821Z,102512.25
2022-08-07T20:10:35.062Z,102508.69
2022-08-07T20:12:56.694Z,102515.63
2022-08-07T20:15:33.110Z,102512.91
2022-08-07T20:18:14.470Z,102506.41
2022-08-07T20:20:45.419Z,102514.22
2022-08-07T20:23:32.994Z,102511.28
2022-08-07T20:26:09.888Z,102513.16
2022-08-07T20:28:39.692Z,102500.13
2022-08-07T20:31:21.360Z,102505.38
2022-08-07T20:33:56.821Z,102510.25
2022-08-07T20:36:27.077Z,102516.13
2022-08-07T20:39:00.447Z,102513.41
2022-08-07T20:41:38.423Z,102510.69
2022-08-07T20:44:12.819Z,102510.25
2022-08-07T20:46:43.880Z,102510.25
2022-08-07T20:49:59.006Z,102509.22
2022-08-07T20:52:02.026Z,102501.03
2022-08-07T20:54:34.178Z,102515.31
2022-08-07T20:57:08.188Z,102509.44
2022-08-07T21:00:08.064Z,102514.47
2022-08-07T21:02:55.526Z,102508.41
2022-08-07T21:05:51.517Z,102513.25
2022-08-07T21:08:37.679Z,102509.47
2022-08-07T21:11:10.938Z,102517.91
2022-08-07T21:14:16.744Z,102512.63
2022-08-07T21:16:56.096Z,102517.69
2022-08-07T21:19:31.818Z,102520.41
2022-08-07T21:22:15.669Z,102518.75
2022-08-07T21:25:12.220Z,102519.41
2022-08-07T21:28:04.693Z,102520.63
2022-08-07T21:31:11.118Z,102515.00
2022-08-07T21:33:56.697Z,102525.09
2022-08-07T21:36:31.225Z,102519.16
2022-08-07T21:39:46.104Z,102516.84
2022-08-07T21:42:42.436Z,102513.09
2022-08-07T21:46:05.351Z,102521.06
2022-08-07T21:48:56.562Z,102521.28
2022-08-07T21:51:33.832Z,102518.78
2022-08-07T21:54:33.413Z,102524.25
2022-08-07T21:57:30.869Z,102526.09
2022-08-07T22:00:23.100Z,102531.56
2022-08-07T22:03:16.790Z,102523.00
2022-08-07T22:06:29.985Z,102526.13
2022-08-07T22:09:07.944Z,102522.75
2022-08-07T22:12:05.275Z,102528.22
2022-08-07T22:14:36.815Z,102524.03
2022-08-07T22:17:07.297Z,102530.16
2022-08-07T22:20:00.268Z,102533.28
2022-08-07T22:22:36.784Z,102527.00
2022-08-07T22:25:12.250Z,102529.28
2022-08-07T22:28:19.817Z,102531.19
2022-08-07T22:30:58.426Z,102530.53
2022-08-07T22:33:52.781Z,102533.28
2022-08-07T22:36:52.596Z,102538.94
2022-08-07T22:39:52.896Z,102540.63
2022-08-07T22:42:29.332Z,102542.72
2022-08-07T22:45:02.458Z,102546.72
2022-08-07T22:48:01.226Z,102541.47
2022-08-07T22:50:59.686Z,102547.16
2022-08-07T22:54:07.582Z,102540.63
2022-08-07T22:56:35.929Z,102538.97
2022-08-07T22:59:26.720Z,102549.88
2022-08-07T23:02:13.524Z,102539.16
2022-08-07T23:06:10.026Z,102540.22
2022-08-07T23:07:52.847Z,102533.25
2022-08-07T23:10:41.333Z,102535.16
2022-08-07T23:13:29.604Z,102536.41
2022-08-07T23:16:44.378Z,102539.13
2022-08-07T23:19:48.393Z,102544.59
2022-08-07T23:22:50.077Z,102545.66
2022-08-07T23:25:56.795Z,102547.94
2022-08-07T23:28:54.594Z,102545.44
2022-08-07T23:32:50.122Z,102549.41
2022-08-07T23:34:39.535Z,102552.34
2022-08-07T23:37:34.602Z,102545.22
2022-08-07T23:40:22.478Z,102557.81
2022-08-07T23:43:16.756Z,102549.84
2022-08-07T23:46:03.707Z,102544.59
2022-08-07T23:48:47.481Z,102553.00
2022-08-07T23:53:01.917Z,102549.59
2022-08-07T23:54:58.135Z,102551.50
2022-08-07T23:57:37.612Z,102544.38
